createdAt,value
2023-09-09T00:01:18.260Z,85.30
2023-09-09T00:06:21.550Z,84.00
2023-09-09T00:11:24.753Z,84.40
2023-09-09T00:16:34.563Z,86.70
2023-09-09T00:21:37.921Z,85.30
2023-09-09T00:26:41.105Z,86.00
2023-09-09T00:31:50.884Z,86.30
2023-09-09T00:36:54.188Z,84.50
2023-09-09T00:41:57.516Z,83.20
2023-09-09T00:47:02.414Z,84.00
2023-09-09T00:52:06.379Z,85.20
2023-09-09T00:57:10.150Z,85.50
2023-09-09T01:02:15.004Z,85.50
2023-09-09T01:07:18.274Z,90.00
2023-09-09T01:12:23.822Z,89.80
2023-09-09T01:17:28.917Z,90.40
2023-09-09T01:22:36.622Z,90.30
2023-09-09T01:27:40.066Z,89.20
2023-09-09T01:32:43.339Z,90.00
2023-09-09T01:37:48.950Z,89.70
2023-09-09T01:42:52.230Z,89.10
2023-09-09T01:47:55.498Z,90.70
2023-09-09T01:53:00.463Z,90.30
2023-09-09T01:58:03.947Z,92.30
2023-09-09T02:03:07.950Z,92.80
2023-09-09T02:08:12.709Z,92.90
2023-09-09T02:13:15.896Z,91.70
2023-09-09T02:18:19.097Z,90.70
2023-09-09T02:23:23.735Z,91.80
2023-09-09T02:28:27.584Z,92.50
2023-09-09T02:33:30.864Z,92.10
2023-09-09T02:38:37.270Z,92.10
2023-09-09T02:43:40.507Z,92.00
2023-09-09T02:48:44.706Z,91.20
2023-09-09T02:53:49.268Z,90.70
2023-09-09T02:58:52.437Z,90.90
2023-09-09T03:03:55.677Z,91.30
2023-09-09T03:09:00.305Z,91.10
2023-09-09T03:14:03.641Z,92.80
2023-09-09T03:19:06.953Z,93.10
2023-09-09T03:24:11.537Z,92.80
2023-09-09T03:29:15.068Z,93.90
2023-09-09T03:34:18.287Z,91.80
2023-09-09T03:39:23.169Z,92.40
2023-09-09T03:44:26.733Z,92.50
2023-09-09T03:49:29.985Z,93.20
2023-09-09T03:54:34.546Z,92.60
2023-09-09T03:59:37.751Z,91.10
2023-09-09T04:04:40.994Z,90.80
2023-09-09T04:09:45.756Z,91.90
2023-09-09T04:14:49.071Z,91.70
2023-09-09T04:19:52.460Z,91.80
2023-09-09T04:24:57.173Z,93.00
2023-09-09T04:30:00.356Z,91.70
2023-09-09T04:35:04.548Z,91.90
2023-09-09T04:40:12.042Z,91.90
2023-09-09T04:45:15.283Z,91.50
2023-09-09T04:50:18.903Z,91.70
2023-09-09T04:55:23.476Z,93.00
2023-09-09T05:00:26.791Z,93.80
2023-09-09T05:05:30.002Z,92.90
2023-09-09T05:10:35.590Z,93.50
2023-09-09T05:15:39.377Z,93.00
2023-09-09T05:20:42.540Z,94.10
2023-09-09T05:25:47.217Z,94.40
2023-09-09T05:30:50.415Z,93.40
2023-09-09T05:35:53.570Z,93.90
2023-09-09T05:40:58.364Z,96.00
2023-09-09T05:46:02.176Z,95.10
2023-09-09T05:51:05.634Z,95.90
2023-09-09T05:56:10.416Z,95.50
2023-09-09T06:01:13.652Z,93.50
2023-09-09T06:06:17.091Z,92.90
2023-09-09T06:11:21.812Z,90.60
2023-09-09T06:16:25.144Z,88.20
2023-09-09T06:21:28.402Z,86.60
2023-09-09T06:26:35.090Z,84.60
2023-09-09T06:31:38.478Z,83.00
2023-09-09T06:36:41.679Z,81.00
2023-09-09T06:41:46.633Z,79.40
2023-09-09T06:46:49.831Z,79.00
2023-09-09T06:51:54.764Z,78.80
2023-09-09T06:56:59.606Z,77.60
2023-09-09T07:02:03.392Z,75.30
2023-09-09T07:07:13.222Z,73.40
2023-09-09T07:12:18.394Z,74.80
2023-09-09T07:17:22.128Z,74.10
2023-09-09T07:22:25.353Z,72.10
2023-09-09T07:27:29.933Z,71.40
2023-09-09T07:32:33.253Z,68.50
2023-09-09T07:37:36.733Z,67.00
2023-09-09T07:42:41.295Z,65.10
2023-09-09T07:47:44.677Z,64.40
2023-09-09T07:52:48.032Z,63.90
2023-09-09T07:57:52.731Z,62.20
2023-09-09T08:02:56.024Z,60.40
2023-09-09T08:07:59.253Z,59.20
2023-09-09T08:13:04.556Z,58.20
2023-09-09T08:18:08.198Z,58.70
2023-09-09T08:23:11.410Z,59.90
2023-09-09T08:28:18.514Z,60.20
2023-09-09T08:33:23.000Z,57.30
2023-09-09T08:38:26.219Z,55.50
2023-09-09T08:43:38.359Z,54.20
2023-09-09T08:48:43.230Z,53.60
2023-09-09T08:53:46.813Z,52.80
2023-09-09T08:58:51.547Z,51.60
2023-09-09T09:03:57.017Z,50.80
2023-09-09T09:09:00.422Z,50.10
2023-09-09T09:14:13.831Z,49.70
2023-09-09T09:19:22.502Z,48.70
2023-09-09T09:24:28.086Z,47.60
2023-09-09T09:29:41.902Z,45.00
2023-09-09T09:34:45.558Z,45.00
2023-09-09T09:39:48.933Z,46.20
2023-09-09T09:45:00.525Z,46.00
2023-09-09T09:50:08.272Z,45.10
2023-09-09T09:55:18.837Z,45.20
2023-09-09T10:00:23.671Z,45.70
2023-09-09T10:05:28.463Z,44.90
2023-09-09T10:10:33.998Z,44.40
2023-09-09T10:15:38.977Z,44.40
2023-09-09T10:20:43.066Z,44.70
2023-09-09T10:25:46.699Z,44.30
2023-09-09T10:30:52.469Z,44.10
2023-09-09T10:35:56.564Z,43.70
2023-09-09T10:41:00.265Z,43.70
2023-09-09T10:46:05.376Z,42.70
2023-09-09T10:51:08.924Z,42.90
2023-09-09T10:56:25.287Z,42.20
2023-09-09T11:01:29.972Z,42.00
2023-09-09T11:06:33.333Z,41.70
2023-09-09T11:11:38.897Z,41.00
2023-09-09T11:16:44.759Z,40.60
2023-09-09T11:21:48.856Z,40.60
2023-09-09T11:26:52.816Z,39.60
2023-09-09T11:31:57.668Z,39.30
2023-09-09T11:37:02.185Z,39.60
2023-09-09T11:42:05.937Z,39.90
2023-09-09T11:47:10.806Z,38.60
2023-09-09T11:52:14.330Z,39.20
2023-09-09T11:57:17.629Z,38.00
2023-09-09T12:02:23.205Z,37.00
2023-09-09T12:07:29.158Z,35.30
2023-09-09T12:12:32.852Z,35.30
2023-09-09T12:17:37.853Z,34.70
2023-09-09T12:22:48.198Z,34.20
2023-09-09T12:27:51.510Z,33.50
2023-09-09T12:32:56.202Z,34.50
2023-09-09T12:37:59.647Z,34.60
2023-09-09T12:43:11.273Z,34.20
2023-09-09T12:48:16.238Z,34.90
2023-09-09T12:53:19.454Z,34.80
2023-09-09T12:58:23.808Z,34.70
2023-09-09T13:03:28.527Z,34.60
2023-09-09T13:08:31.750Z,34.20
2023-09-09T13:13:35.096Z,34.00
2023-09-09T13:18:39.873Z,33.60
2023-09-09T13:23:43.119Z,32.90
2023-09-09T13:28:46.329Z,33.70
2023-09-09T13:33:50.938Z,33.20
2023-09-09T13:38:54.192Z,34.50
2023-09-09T13:43:57.721Z,34.00
2023-09-09T13:49:02.297Z,33.30
2023-09-09T13:54:06.015Z,33.70
2023-09-09T13:59:09.373Z,33.10
2023-09-09T14:04:14.168Z,32.60
2023-09-09T14:09:17.454Z,32.40
2023-09-09T14:14:20.791Z,32.60
2023-09-09T14:19:25.420Z,32.60
2023-09-09T14:24:28.636Z,33.00
2023-09-09T14:29:31.844Z,32.90
2023-09-09T14:34:36.756Z,32.50
2023-09-09T14:39:40.116Z,33.00
2023-09-09T14:44:44.216Z,32.10
2023-09-09T14:49:49.061Z,32.00
2023-09-09T14:54:52.364Z,32.70
2023-09-09T14:59:55.607Z,32.20
2023-09-09T15:05:00.481Z,32.80
2023-09-09T15:10:03.682Z,32.50
2023-09-09T15:15:08.324Z,32.20
2023-09-09T15:20:13.620Z,32.00
2023-09-09T15:25:16.927Z,32.40
2023-09-09T15:30:20.258Z,32.60
2023-09-09T15:35:29.713Z,33.20
2023-09-09T15:40:33.083Z,32.90
2023-09-09T15:45:36.391Z,33.90
2023-09-09T15:50:43.184Z,33.50
2023-09-09T15:55:46.476Z,33.50
2023-09-09T16:00:50.972Z,33.50
2023-09-09T16:05:55.529Z,34.00
2023-09-09T16:10:58.888Z,34.10
2023-09-09T16:16:02.808Z,34.50
2023-09-09T16:21:07.633Z,35.10
2023-09-09T16:26:10.848Z,35.50
2023-09-09T16:31:14.059Z,36.30
2023-09-09T16:36:18.704Z,35.80
2023-09-09T16:41:21.938Z,35.60
2023-09-09T16:46:26.849Z,36.20
2023-09-09T16:51:32.893Z,36.60
2023-09-09T16:56:36.163Z,36.00
2023-09-09T17:01:39.546Z,36.10
2023-09-09T17:06:44.309Z,35.70
2023-09-09T17:11:47.451Z,35.90
2023-09-09T17:16:50.702Z,37.00
2023-09-09T17:21:55.784Z,38.50
2023-09-09T17:26:59.030Z,38.70
2023-09-09T17:32:04.790Z,39.40
2023-09-09T17:37:09.601Z,39.20
2023-09-09T17:42:12.957Z,40.00
2023-09-09T17:47:16.330Z,40.70
2023-09-09T17:52:21.076Z,42.80
2023-09-09T17:57:24.304Z,43.80
2023-09-09T18:02:27.578Z,44.80
2023-09-09T18:07:32.255Z,47.10
2023-09-09T18:12:37.954Z,46.60
2023-09-09T18:17:41.402Z,47.00
2023-09-09T18:22:46.079Z,48.70
2023-09-09T18:27:49.625Z,50.50
2023-09-09T18:32:52.832Z,51.40
2023-09-09T18:37:57.600Z,52.00
2023-09-09T18:43:00.854Z,52.80
2023-09-09T18:48:04.987Z,53.50
2023-09-09T18:53:09.551Z,53.70
2023-09-09T18:58:14.292Z,54.00
2023-09-09T19:03:19.863Z,55.10
2023-09-09T19:08:24.992Z,55.10
2023-09-09T19:13:28.355Z,55.80
2023-09-09T19:18:31.636Z,57.10
2023-09-09T19:23:36.243Z,57.60
2023-09-09T19:28:39.657Z,58.80
2023-09-09T19:33:43.257Z,61.50
2023-09-09T19:38:47.846Z,60.70
2023-09-09T19:43:51.074Z,60.90
2023-09-09T19:48:56.057Z,62.20
2023-09-09T19:54:00.639Z,63.40
2023-09-09T19:59:03.890Z,63.70
2023-09-09T20:04:07.460Z,64.00
2023-09-09T20:09:12.130Z,64.90
2023-09-09T20:14:15.587Z,67.60
2023-09-09T20:19:18.834Z,69.60
2023-09-09T20:24:23.594Z,71.50
2023-09-09T20:29:26.844Z,72.80
2023-09-09T20:34:30.102Z,72.10
2023-09-09T20:39:35.146Z,71.90
2023-09-09T20:44:38.396Z,73.00
2023-09-09T20:49:41.717Z,75.10
2023-09-09T20:54:46.326Z,75.90
2023-09-09T20:59:51.123Z,75.80
2023-09-09T21:04:54.384Z,74.40
2023-09-09T21:09:59.096Z,74.50
2023-09-09T21:15:04.152Z,76.90
2023-09-09T21:20:09.668Z,76.30
2023-09-09T21:25:14.379Z,75.80
2023-09-09T21:30:17.667Z,77.40
2023-09-09T21:35:20.893Z,77.60
2023-09-09T21:40:25.793Z,76.90
2023-09-09T21:45:29.074Z,76.00
2023-09-09T21:50:32.272Z,75.40
2023-09-09T21:55:36.933Z,75.20
2023-09-09T22:00:40.269Z,73.80
2023-09-09T22:05:43.550Z,73.10
2023-09-09T22:10:50.195Z,73.40
2023-09-09T22:15:53.514Z,75.80
2023-09-09T22:20:57.022Z,78.40
2023-09-09T22:26:01.789Z,76.80
2023-09-09T22:31:05.426Z,76.10
2023-09-09T22:36:09.402Z,75.50
2023-09-09T22:41:13.912Z,76.20
2023-09-09T22:46:17.218Z,77.40
2023-09-09T22:51:20.573Z,78.80
2023-09-09T22:56:25.262Z,79.50
2023-09-09T23:01:28.467Z,79.90
2023-09-09T23:06:31.912Z,78.80
2023-09-09T23:11:36.490Z,77.50
2023-09-09T23:16:39.955Z,76.60
2023-09-09T23:21:43.260Z,77.70
2023-09-09T23:26:50.037Z,77.70
2023-09-09T23:31:53.349Z,79.20
2023-09-09T23:36:56.594Z,80.80
2023-09-09T23:42:01.247Z,80.70
2023-09-09T23:47:04.881Z,80.80
2023-09-09T23:52:08.303Z,80.50
2023-09-09T23:57:12.949Z,81.90
